createdAt,value
2023-01-19T00:00:39.612Z,12.52
2023-01-19T00:03:06.450Z,12.80
2023-01-19T00:05:33.783Z,11.73
2023-01-19T00:08:14.497Z,11.85
2023-01-19T00:10:43.556Z,12.07
2023-01-19T00:13:10.161Z,11.13
2023-01-19T00:15:36.960Z,12.15
2023-01-19T00:18:04.127Z,12.25
2023-01-19T00:20:35.592Z,9.35
2023-01-19T00:23:03.449Z,10.60
2023-01-19T00:25:30.368Z,10.35
2023-01-19T00:27:57.302Z,9.25
2023-01-19T00:30:23.929Z,9.20
2023-01-19T00:32:50.524Z,9.10
2023-01-19T00:35:17.217Z,8.88
2023-01-19T00:37:46.020Z,10.20
2023-01-19T00:40:13.988Z,9.13
2023-01-19T00:42:41.193Z,9.55
2023-01-19T00:45:09.886Z,8.77
2023-01-19T00:47:37.058Z,8.68
2023-01-19T00:50:03.981Z,8.43
2023-01-19T00:52:30.600Z,8.55
2023-01-19T00:54:57.230Z,7.70
2023-01-19T00:57:23.860Z,10.18
2023-01-19T00:59:50.536Z,9.60
2023-01-19T01:02:17.370Z,9.23
2023-01-19T01:04:44.115Z,8.75
2023-01-19T01:07:10.844Z,10.45
2023-01-19T01:09:37.419Z,10.10
2023-01-19T01:12:04.185Z,8.50
2023-01-19T01:14:32.852Z,8.70
2023-01-19T01:17:00.544Z,10.85
2023-01-19T01:19:27.201Z,10.38
2023-01-19T01:21:54.018Z,9.85
2023-01-19T01:24:20.896Z,10.32
2023-01-19T01:26:47.747Z,9.73
2023-01-19T01:29:14.411Z,9.38
2023-01-19T01:31:41.185Z,8.90
2023-01-19T01:34:08.692Z,9.27
2023-01-19T01:36:36.005Z,8.70
2023-01-19T01:39:02.970Z,8.63
2023-01-19T01:41:29.620Z,9.02
2023-01-19T01:44:01.779Z,9.68
2023-01-19T01:46:30.721Z,8.93
2023-01-19T01:49:10.401Z,8.05
2023-01-19T01:51:41.866Z,9.85
2023-01-19T01:54:32.177Z,8.73
2023-01-19T01:57:03.656Z,8.45
2023-01-19T01:59:39.216Z,8.70
2023-01-19T02:02:29.968Z,8.68
2023-01-19T02:05:04.077Z,8.07
2023-01-19T02:08:00.381Z,10.27
2023-01-19T02:10:45.745Z,9.02
2023-01-19T02:13:22.847Z,8.18
2023-01-19T02:15:55.587Z,8.23
2023-01-19T02:18:24.714Z,9.45
2023-01-19T02:21:14.505Z,9.43
2023-01-19T02:23:43.015Z,9.80
2023-01-19T02:26:12.982Z,9.85
2023-01-19T02:28:44.088Z,9.68
2023-01-19T02:31:11.447Z,9.63
2023-01-19T02:33:38.193Z,9.18
2023-01-19T02:36:06.042Z,9.57
2023-01-19T02:38:33.130Z,10.73
2023-01-19T02:41:03.012Z,10.30
2023-01-19T02:43:30.668Z,10.90
2023-01-19T02:45:57.547Z,9.98
2023-01-19T02:48:24.269Z,10.18
2023-01-19T02:50:57.240Z,10.68
2023-01-19T02:53:44.114Z,9.80
2023-01-19T02:56:36.255Z,10.88
2023-01-19T02:59:38.619Z,11.90
2023-01-19T03:02:18.155Z,9.57
2023-01-19T03:04:59.629Z,9.93
2023-01-19T03:07:47.473Z,10.05
2023-01-19T03:10:39.923Z,9.60
2023-01-19T03:13:21.509Z,9.80
2023-01-19T03:15:56.405Z,10.20
2023-01-19T03:18:26.565Z,10.48
2023-01-19T03:20:57.934Z,9.77
2023-01-19T03:23:29.901Z,10.32
2023-01-19T03:26:00.229Z,9.68
2023-01-19T03:28:29.347Z,9.80
2023-01-19T03:31:07.333Z,10.25
2023-01-19T03:33:38.174Z,10.45
2023-01-19T03:36:14.706Z,11.13
2023-01-19T03:38:43.111Z,9.45
2023-01-19T03:41:13.487Z,10.02
2023-01-19T03:43:41.084Z,10.95
2023-01-19T03:46:10.877Z,10.00
2023-01-19T03:48:39.723Z,10.80
2023-01-19T03:51:09.073Z,9.82
2023-01-19T03:53:35.731Z,10.98
2023-01-19T03:56:03.551Z,10.38
2023-01-19T03:58:30.145Z,9.80
2023-01-19T04:00:56.779Z,9.32
2023-01-19T04:03:23.418Z,9.82
2023-01-19T04:05:50.055Z,10.38
2023-01-19T04:08:16.690Z,10.13
2023-01-19T04:10:43.280Z,9.60
2023-01-19T04:13:10.372Z,11.30
2023-01-19T04:15:39.468Z,9.95
2023-01-19T04:18:06.902Z,10.57
2023-01-19T04:20:33.956Z,9.52
2023-01-19T04:23:01.695Z,8.75
2023-01-19T04:25:28.665Z,11.27
2023-01-19T04:27:57.854Z,10.73
2023-01-19T04:30:24.951Z,9.85
2023-01-19T04:32:51.862Z,9.57
2023-01-19T04:35:18.752Z,10.63
2023-01-19T04:37:45.636Z,9.90
2023-01-19T04:40:12.603Z,10.05
2023-01-19T04:42:42.873Z,10.13
2023-01-19T04:45:09.871Z,10.48
2023-01-19T04:47:37.278Z,11.52
2023-01-19T04:50:05.813Z,11.32
2023-01-19T04:52:36.935Z,11.43
2023-01-19T04:55:05.572Z,10.57
2023-01-19T04:57:32.473Z,10.75
2023-01-19T04:59:59.173Z,12.60
2023-01-19T05:02:27.333Z,10.27
2023-01-19T05:04:54.680Z,11.02
2023-01-19T05:07:21.287Z,10.73
2023-01-19T05:09:47.917Z,11.48
2023-01-19T05:12:14.675Z,12.90
2023-01-19T05:14:41.430Z,12.98
2023-01-19T05:17:08.089Z,11.68
2023-01-19T05:19:35.363Z,11.40
2023-01-19T05:22:05.887Z,12.10
2023-01-19T05:24:32.742Z,12.27
2023-01-19T05:26:59.914Z,12.77
2023-01-19T05:29:26.567Z,12.20
2023-01-19T05:31:53.529Z,13.40
2023-01-19T05:34:20.218Z,12.38
2023-01-19T05:36:46.881Z,13.23
2023-01-19T05:39:13.511Z,12.00
2023-01-19T05:41:41.887Z,11.95
2023-01-19T05:44:09.516Z,12.13
2023-01-19T05:46:37.799Z,12.90
2023-01-19T05:49:05.057Z,11.20
2023-01-19T05:51:35.146Z,12.15
2023-01-19T05:54:02.039Z,11.50
2023-01-19T05:56:29.075Z,10.63
2023-01-19T05:58:55.681Z,10.35
2023-01-19T06:01:22.412Z,11.00
2023-01-19T06:03:49.068Z,11.68
2023-01-19T06:06:15.909Z,12.70
2023-01-19T06:08:42.603Z,19.30
2023-01-19T06:11:09.213Z,11.88
2023-01-19T06:13:35.860Z,10.05
2023-01-19T06:16:03.388Z,10.38
2023-01-19T06:18:30.193Z,11.48
2023-01-19T06:20:58.789Z,9.85
2023-01-19T06:23:26.650Z,10.70
2023-01-19T06:25:53.311Z,10.82
2023-01-19T06:28:19.872Z,10.60
2023-01-19T06:30:49.883Z,10.68
2023-01-19T06:33:18.031Z,11.45
2023-01-19T06:35:46.250Z,10.32
2023-01-19T06:38:17.073Z,11.70
2023-01-19T06:40:44.033Z,10.23
2023-01-19T06:43:11.023Z,10.45
2023-01-19T06:45:39.333Z,11.07
2023-01-19T06:48:06.549Z,10.23
2023-01-19T06:50:33.190Z,10.35
2023-01-19T06:53:00.151Z,10.55
2023-01-19T06:55:27.666Z,10.48
2023-01-19T06:58:01.277Z,10.77
2023-01-19T07:00:28.870Z,10.23
2023-01-19T07:02:55.547Z,10.65
2023-01-19T07:05:22.504Z,10.80
2023-01-19T07:07:56.498Z,11.23
2023-01-19T07:10:24.761Z,10.68
2023-01-19T07:12:51.768Z,11.52
2023-01-19T07:15:19.734Z,12.23
2023-01-19T07:17:46.521Z,11.27
2023-01-19T07:20:14.636Z,12.15
2023-01-19T07:22:43.492Z,11.00
2023-01-19T07:25:10.523Z,12.07
2023-01-19T07:27:37.426Z,12.18
2023-01-19T07:30:05.209Z,12.52
2023-01-19T07:32:32.324Z,12.38
2023-01-19T07:34:59.456Z,13.23
2023-01-19T07:37:26.467Z,12.27
2023-01-19T07:39:53.485Z,12.40
2023-01-19T07:42:20.497Z,12.55
2023-01-19T07:44:47.682Z,14.13
2023-01-19T07:47:14.881Z,11.65
2023-01-19T07:49:42.674Z,11.52
2023-01-19T07:52:09.920Z,13.05
2023-01-19T07:54:37.069Z,11.43
2023-01-19T07:57:04.127Z,12.90
2023-01-19T07:59:32.267Z,11.07
2023-01-19T08:01:59.771Z,12.48
2023-01-19T08:04:28.571Z,10.48
2023-01-19T08:06:56.665Z,12.55
2023-01-19T08:09:24.431Z,11.63
2023-01-19T08:11:51.611Z,10.77
2023-01-19T08:14:18.620Z,13.25
2023-01-19T08:16:45.772Z,12.70
2023-01-19T08:19:12.783Z,11.02
2023-01-19T08:21:39.913Z,11.57
2023-01-19T08:24:07.113Z,11.40
2023-01-19T08:26:35.097Z,10.73
2023-01-19T08:29:03.521Z,11.35
2023-01-19T08:31:31.101Z,11.00
2023-01-19T08:33:58.645Z,11.82
2023-01-19T08:36:25.708Z,10.23
2023-01-19T08:38:53.376Z,10.63
2023-01-19T08:41:20.597Z,10.93
2023-01-19T08:43:47.666Z,11.07
2023-01-19T08:46:20.664Z,11.13
2023-01-19T08:48:48.657Z,10.55
2023-01-19T08:51:17.300Z,15.98
2023-01-19T08:53:44.074Z,10.50
2023-01-19T08:56:12.573Z,10.13
2023-01-19T08:58:43.065Z,10.52
2023-01-19T09:01:22.182Z,9.75
2023-01-19T09:03:49.114Z,11.48
2023-01-19T09:06:18.337Z,9.43
2023-01-19T09:08:45.441Z,10.00
2023-01-19T09:11:14.581Z,9.88
2023-01-19T09:13:43.041Z,10.00
2023-01-19T09:16:11.434Z,9.48
2023-01-19T09:18:38.790Z,9.77
2023-01-19T09:21:06.036Z,8.38
2023-01-19T09:23:32.938Z,9.90
2023-01-19T09:26:02.167Z,9.32
2023-01-19T09:28:29.639Z,8.65
2023-01-19T09:30:56.828Z,8.82
2023-01-19T09:33:24.652Z,8.18
2023-01-19T09:35:51.935Z,9.55
2023-01-19T09:38:19.840Z,9.65
2023-01-19T09:40:56.595Z,10.40
2023-01-19T09:43:32.059Z,8.85
2023-01-19T09:46:01.207Z,9.10
2023-01-19T09:48:42.409Z,8.95
2023-01-19T09:51:15.311Z,8.15
2023-01-19T09:53:53.104Z,8.43
2023-01-19T09:56:20.904Z,8.95
2023-01-19T09:58:49.682Z,7.57
2023-01-19T10:01:22.620Z,7.55
2023-01-19T10:03:59.712Z,7.93
2023-01-19T10:06:27.247Z,7.70
2023-01-19T10:09:10.232Z,7.55
2023-01-19T10:11:52.649Z,7.35
2023-01-19T10:14:48.464Z,6.15
2023-01-19T10:17:24.003Z,6.85
2023-01-19T10:19:55.259Z,7.82
2023-01-19T10:22:25.201Z,7.32
2023-01-19T10:24:56.698Z,7.97
2023-01-19T10:27:28.348Z,7.15
2023-01-19T10:29:54.987Z,7.57
2023-01-19T10:32:27.870Z,6.95
2023-01-19T10:34:55.659Z,7.43
2023-01-19T10:37:24.990Z,7.63
2023-01-19T10:40:02.282Z,9.77
2023-01-19T10:42:30.792Z,7.38
2023-01-19T10:44:57.430Z,5.72
2023-01-19T10:47:33.422Z,6.68
2023-01-19T10:50:00.448Z,6.68
2023-01-19T10:52:30.965Z,5.10
2023-01-19T10:55:00.023Z,6.20
2023-01-19T10:57:34.460Z,6.22
2023-01-19T11:00:01.101Z,6.75
2023-01-19T11:02:30.365Z,5.50
2023-01-19T11:05:20.812Z,5.70
2023-01-19T11:07:47.471Z,5.65
2023-01-19T11:10:23.144Z,5.45
2023-01-19T11:13:15.735Z,6.35
2023-01-19T11:15:54.398Z,5.72
2023-01-19T11:18:28.844Z,8.43
2023-01-19T11:20:58.966Z,6.38
2023-01-19T11:23:36.515Z,5.90
2023-01-19T11:26:05.592Z,5.15
2023-01-19T11:28:35.883Z,6.45
2023-01-19T11:31:09.860Z,5.85
2023-01-19T11:33:48.041Z,5.57
2023-01-19T11:36:25.343Z,5.15
2023-01-19T11:38:57.423Z,5.90
2023-01-19T11:41:34.334Z,5.40
2023-01-19T11:44:20.558Z,4.93
2023-01-19T11:46:53.486Z,5.85
2023-01-19T11:49:25.095Z,5.72
2023-01-19T11:51:59.724Z,5.70
2023-01-19T11:54:30.416Z,5.38
2023-01-19T11:57:00.240Z,10.10
2023-01-19T11:59:27.190Z,6.50
2023-01-19T12:01:57.983Z,6.53
2023-01-19T12:04:33.335Z,6.18
2023-01-19T12:07:04.965Z,7.50
2023-01-19T12:09:42.901Z,10.95
2023-01-19T12:12:26.234Z,9.90
2023-01-19T12:15:04.322Z,6.93
2023-01-19T12:17:43.417Z,8.43
2023-01-19T12:20:28.911Z,7.88
2023-01-19T12:23:01.038Z,15.93
2023-01-19T12:25:54.951Z,7.40
2023-01-19T12:28:28.070Z,10.35
2023-01-19T12:30:55.390Z,14.85
2023-01-19T12:33:23.434Z,5.82
2023-01-19T12:36:16.276Z,8.27
2023-01-19T12:39:01.052Z,6.95
2023-01-19T12:41:37.069Z,6.80
2023-01-19T12:44:11.985Z,7.03
2023-01-19T12:46:54.318Z,5.93
2023-01-19T12:49:31.753Z,4.93
2023-01-19T12:52:19.461Z,5.70
2023-01-19T12:54:55.005Z,5.65
2023-01-19T12:57:28.240Z,5.43
2023-01-19T13:00:05.581Z,5.47
2023-01-19T13:02:46.410Z,5.32
2023-01-19T13:05:17.109Z,4.97
2023-01-19T13:08:02.357Z,5.43
2023-01-19T13:10:59.962Z,5.20
2023-01-19T13:13:37.103Z,5.63
2023-01-19T13:16:19.267Z,4.95
2023-01-19T13:18:50.615Z,4.60
2023-01-19T13:21:27.823Z,4.95
2023-01-19T13:24:03.742Z,5.03
2023-01-19T13:26:36.018Z,5.88
2023-01-19T13:29:14.471Z,4.43
2023-01-19T13:31:45.905Z,4.18
2023-01-19T13:34:18.739Z,4.07
2023-01-19T13:36:54.405Z,4.60
2023-01-19T13:39:36.759Z,4.33
2023-01-19T13:42:14.609Z,5.57
2023-01-19T13:44:47.053Z,5.80
2023-01-19T13:47:20.917Z,4.90
2023-01-19T13:49:50.139Z,5.20
2023-01-19T13:52:23.990Z,5.77
2023-01-19T13:54:55.218Z,6.10
2023-01-19T13:57:29.927Z,6.15
2023-01-19T14:00:15.970Z,5.85
2023-01-19T14:02:45.526Z,6.30
2023-01-19T14:05:20.056Z,4.80
2023-01-19T14:07:46.839Z,4.50
2023-01-19T14:10:16.600Z,4.95
2023-01-19T14:12:58.562Z,4.53
2023-01-19T14:15:26.207Z,4.47
2023-01-19T14:18:22.205Z,4.38
2023-01-19T14:21:09.694Z,4.35
2023-01-19T14:24:12.941Z,4.43
2023-01-19T14:26:42.846Z,4.30
2023-01-19T14:29:13.123Z,4.40
2023-01-19T14:31:53.098Z,4.43
2023-01-19T14:34:45.671Z,4.60
2023-01-19T14:37:23.021Z,5.18
2023-01-19T14:39:52.477Z,5.32
2023-01-19T14:42:24.625Z,4.97
2023-01-19T14:44:53.566Z,5.43
2023-01-19T14:47:27.301Z,5.85
2023-01-19T14:49:56.214Z,4.40
2023-01-19T14:52:34.665Z,5.43
2023-01-19T14:55:03.832Z,4.80
2023-01-19T14:57:30.418Z,5.05
2023-01-19T14:59:57.045Z,5.10
2023-01-19T15:02:23.908Z,4.95
2023-01-19T15:04:55.071Z,4.75
2023-01-19T15:07:23.909Z,5.65
2023-01-19T15:09:51.382Z,4.65
2023-01-19T15:12:18.840Z,4.90
2023-01-19T15:14:50.455Z,4.28
2023-01-19T15:17:25.538Z,4.82
2023-01-19T15:19:54.036Z,3.90
2023-01-19T15:22:24.680Z,20.17
2023-01-19T15:24:57.393Z,5.40
2023-01-19T15:27:24.241Z,4.82
2023-01-19T15:29:50.896Z,4.30
2023-01-19T15:32:17.497Z,4.85
2023-01-19T15:34:44.079Z,4.10
2023-01-19T15:37:10.701Z,5.10
2023-01-19T15:39:37.342Z,5.28
2023-01-19T15:42:04.176Z,5.47
2023-01-19T15:44:30.962Z,5.60
2023-01-19T15:46:59.581Z,5.53
2023-01-19T15:49:26.290Z,5.15
2023-01-19T15:51:53.094Z,7.57
2023-01-19T15:54:19.803Z,6.10
2023-01-19T15:56:52.601Z,6.45
2023-01-19T15:59:19.208Z,5.38
2023-01-19T16:01:59.945Z,5.38
2023-01-19T16:04:26.754Z,6.40
2023-01-19T16:06:54.437Z,6.35
2023-01-19T16:09:21.631Z,6.40
2023-01-19T16:11:48.310Z,6.68
2023-01-19T16:14:17.347Z,5.25
2023-01-19T16:16:46.025Z,5.93
2023-01-19T16:19:15.339Z,4.43
2023-01-19T16:21:43.817Z,7.63
2023-01-19T16:24:10.420Z,9.30
2023-01-19T16:26:37.031Z,11.75
2023-01-19T16:29:08.661Z,8.88
2023-01-19T16:31:36.336Z,9.45
2023-01-19T16:34:03.064Z,8.80
2023-01-19T16:36:35.807Z,9.00
2023-01-19T16:39:08.449Z,8.02
2023-01-19T16:41:36.134Z,6.65
2023-01-19T16:44:03.678Z,7.65
2023-01-19T16:46:35.880Z,7.50
2023-01-19T16:49:10.528Z,8.73
2023-01-19T16:51:37.443Z,8.32
2023-01-19T16:54:04.334Z,8.20
2023-01-19T16:56:30.984Z,8.05
2023-01-19T16:58:59.253Z,7.10
2023-01-19T17:01:28.312Z,5.90
2023-01-19T17:03:55.844Z,5.35
2023-01-19T17:06:24.281Z,5.45
2023-01-19T17:08:52.907Z,5.53
2023-01-19T17:11:23.194Z,4.93
2023-01-19T17:13:53.926Z,6.03
2023-01-19T17:16:21.208Z,5.45
2023-01-19T17:18:47.877Z,4.95
2023-01-19T17:21:17.959Z,5.00
2023-01-19T17:23:47.184Z,6.00
2023-01-19T17:26:14.555Z,4.90
2023-01-19T17:28:41.470Z,5.53
2023-01-19T17:31:16.086Z,5.65
2023-01-19T17:33:50.195Z,4.90
2023-01-19T17:36:22.590Z,4.65
2023-01-19T17:38:50.035Z,5.60
2023-01-19T17:41:20.402Z,5.15
2023-01-19T17:43:47.775Z,5.40
2023-01-19T17:46:20.612Z,4.57
2023-01-19T17:48:58.741Z,5.68
2023-01-19T17:51:26.507Z,5.90
2023-01-19T17:53:54.428Z,5.20
2023-01-19T17:56:25.761Z,5.00
2023-01-19T17:58:52.384Z,5.40
2023-01-19T18:01:27.866Z,6.10
2023-01-19T18:03:55.278Z,6.57
2023-01-19T18:06:22.101Z,6.90
2023-01-19T18:08:49.497Z,7.85
2023-01-19T18:11:18.242Z,8.60
2023-01-19T18:13:45.943Z,8.52
2023-01-19T18:16:15.932Z,7.20
2023-01-19T18:18:44.137Z,7.47
2023-01-19T18:21:13.675Z,10.75
2023-01-19T18:23:41.307Z,14.00
2023-01-19T18:26:10.172Z,13.93
2023-01-19T18:28:37.068Z,14.68
2023-01-19T18:31:08.506Z,14.73
2023-01-19T18:33:35.607Z,13.90
2023-01-19T18:36:02.788Z,11.15
2023-01-19T18:38:30.692Z,10.80
2023-01-19T18:41:08.085Z,19.35
2023-01-19T18:43:35.219Z,17.95
2023-01-19T18:46:02.192Z,13.10
2023-01-19T18:48:29.100Z,12.05
2023-01-19T18:50:56.096Z,12.63
2023-01-19T18:53:23.335Z,10.95
2023-01-19T18:55:55.281Z,13.32
2023-01-19T18:58:22.272Z,11.77
2023-01-19T19:00:49.866Z,13.80
2023-01-19T19:03:17.327Z,14.50
2023-01-19T19:05:45.132Z,15.60
2023-01-19T19:08:12.911Z,17.95
2023-01-19T19:10:43.602Z,18.38
2023-01-19T19:13:14.921Z,18.42
2023-01-19T19:15:41.639Z,20.17
2023-01-19T19:18:08.958Z,18.13
2023-01-19T19:20:38.648Z,13.95
2023-01-19T19:23:05.273Z,12.90
2023-01-19T19:25:32.908Z,11.80
2023-01-19T19:27:59.568Z,12.85
2023-01-19T19:30:26.231Z,11.93
2023-01-19T19:32:54.423Z,11.85
2023-01-19T19:35:21.285Z,13.15
2023-01-19T19:37:48.667Z,15.35
2023-01-19T19:40:15.933Z,16.20
2023-01-19T19:42:42.689Z,15.45
2023-01-19T19:45:09.976Z,15.38
2023-01-19T19:47:36.659Z,17.73
2023-01-19T19:50:03.363Z,13.45
2023-01-19T19:52:30.025Z,13.70
2023-01-19T19:54:56.707Z,14.27
2023-01-19T19:57:24.079Z,18.17
2023-01-19T19:59:50.672Z,17.40
2023-01-19T20:02:17.260Z,15.90
2023-01-19T20:04:44.834Z,12.35
2023-01-19T20:07:11.500Z,21.02
2023-01-19T20:09:38.144Z,43.90
2023-01-19T20:12:04.925Z,28.38
2023-01-19T20:14:31.594Z,15.30
2023-01-19T20:16:59.671Z,8.27
2023-01-19T20:19:26.307Z,8.75
2023-01-19T20:21:53.048Z,10.27
2023-01-19T20:24:20.497Z,27.17
2023-01-19T20:26:52.214Z,16.65
2023-01-19T20:29:22.075Z,25.15
2023-01-19T20:31:54.960Z,25.33
2023-01-19T20:34:24.597Z,21.00
2023-01-19T20:36:53.080Z,16.65
2023-01-19T20:39:21.245Z,13.93
2023-01-19T20:41:50.185Z,15.25
2023-01-19T20:44:20.624Z,15.68
2023-01-19T20:46:48.066Z,13.00
2023-01-19T20:49:15.135Z,12.57
2023-01-19T20:51:45.273Z,13.07
2023-01-19T20:54:12.768Z,13.65
2023-01-19T20:56:41.238Z,11.32
2023-01-19T20:59:09.084Z,13.07
2023-01-19T21:01:36.401Z,11.65
2023-01-19T21:04:03.359Z,10.80
2023-01-19T21:06:30.181Z,11.95
2023-01-19T21:08:57.597Z,9.73
2023-01-19T21:11:25.033Z,10.13
2023-01-19T21:13:55.514Z,10.57
2023-01-19T21:16:24.015Z,10.23
2023-01-19T21:18:50.709Z,11.15
2023-01-19T21:21:29.281Z,10.90
2023-01-19T21:23:57.904Z,13.00
2023-01-19T21:26:24.609Z,9.38
2023-01-19T21:28:51.696Z,11.15
2023-01-19T21:31:18.970Z,9.93
2023-01-19T21:33:45.730Z,10.30
2023-01-19T21:36:12.366Z,10.27
2023-01-19T21:38:39.687Z,9.80
2023-01-19T21:41:08.500Z,9.65
2023-01-19T21:43:38.622Z,11.10
2023-01-19T21:46:14.561Z,10.48
2023-01-19T21:48:41.916Z,11.82
2023-01-19T21:51:10.327Z,10.50
2023-01-19T21:53:37.540Z,9.88
2023-01-19T21:56:11.667Z,11.93
2023-01-19T21:58:38.659Z,12.88
2023-01-19T22:01:10.703Z,13.10
2023-01-19T22:03:37.659Z,14.20
2023-01-19T22:06:09.699Z,12.73
2023-01-19T22:08:36.784Z,13.25
2023-01-19T22:11:05.469Z,13.77
2023-01-19T22:13:33.533Z,15.88
2023-01-19T22:16:04.826Z,15.85
2023-01-19T22:18:31.504Z,25.08
2023-01-19T22:21:08.066Z,21.52
2023-01-19T22:23:35.071Z,17.70
2023-01-19T22:26:01.853Z,19.15
2023-01-19T22:28:28.531Z,17.42
2023-01-19T22:31:14.360Z,18.63
2023-01-19T22:33:41.834Z,16.90
2023-01-19T22:36:16.280Z,17.17
2023-01-19T22:38:44.694Z,17.65
2023-01-19T22:41:17.991Z,15.43
2023-01-19T22:43:45.161Z,18.80
2023-01-19T22:46:12.033Z,20.42
2023-01-19T22:48:40.525Z,20.90
2023-01-19T22:51:07.508Z,22.90
2023-01-19T22:53:34.626Z,18.23
2023-01-19T22:56:10.763Z,19.70
2023-01-19T22:58:40.209Z,21.20
2023-01-19T23:01:08.647Z,18.35
2023-01-19T23:03:36.644Z,19.65
2023-01-19T23:06:08.744Z,15.15
2023-01-19T23:08:35.504Z,13.77
2023-01-19T23:11:10.485Z,13.20
2023-01-19T23:13:37.588Z,13.95
2023-01-19T23:16:05.145Z,14.32
2023-01-19T23:18:32.196Z,16.85
2023-01-19T23:21:19.140Z,16.77
2023-01-19T23:23:46.320Z,15.40
2023-01-19T23:26:16.063Z,16.55
2023-01-19T23:28:43.394Z,19.38
2023-01-19T23:31:24.481Z,12.98
2023-01-19T23:33:53.189Z,11.68
2023-01-19T23:36:20.850Z,11.00
2023-01-19T23:38:49.847Z,10.13
2023-01-19T23:41:16.978Z,9.73
2023-01-19T23:43:43.685Z,10.60
2023-01-19T23:46:11.566Z,10.30
2023-01-19T23:48:38.188Z,11.50
2023-01-19T23:51:08.846Z,12.52
2023-01-19T23:53:36.192Z,11.40
2023-01-19T23:56:13.136Z,12.73
2023-01-19T23:58:40.640Z,12.02
